Fairmont, MN

12:44 PM CST on December 06, 2016 (GMT -0600)
FudgeHome | | Change Station
Active Advisory: Wind Advisory Active Notice: Public Information Statement

Elev 1178 ft 43.67 °N, 94.47 °W | Updated 30 seconds ago

Mostly Cloudy
Mostly Cloudy
22.5 °F
Feels Like 10 °F
N
13.0
Wind Variable Wind from SW
Gusts 23.0 mph

Today
High -- | Low -- °F
--% Chance of Precip.
Yesterday
High -- | Low -- °F
Precip. -- in
Pressure 29.79 in
Visibility 10.0 miles
Clouds Mostly Cloudy 2500 ft
Windchill 10 °F
Dew Point 15 °F
Humidity 73%
Rainfall 0.00 in
Snow Depth Not available.
7:37 AM 4:40 PM
Waxing Crescent, 44% visible
SPECI KFRM 061835Z AUTO 27026G35KT 10SM BKN025 M05/M11 A2979 RMK AO2 PK WND 27035/1830 SNE00 FZRANO PNO $
Pressure 29.79 in
Visibility 10.0 miles
Clouds Mostly Cloudy 2500 ft
Windchill 10 °F
Dew Point 15 °F
Humidity 73%
Rainfall 0.00 in
Snow Depth Not available.
7:37 AM 4:40 PM
Waxing Crescent, 44% visible
SPECI KFRM 061835Z AUTO 27026G35KT 10SM BKN025 M05/M11 A2979 RMK AO2 PK WND 27035/1830 SNE00 FZRANO PNO $

10-Day Weather Forecast

Almanac

Astronomy

Dec. 06, 2016 Rise Set
Actual Time
Civil Twilight
Nautical Twilight
Astronomical Twilight
Moon
Length of Visible Light
Length of Day
Tomorrow will be .
, % of the Moon is Illuminated

Today's Extremes

State Highs State Lows

Community

WunderPhotos

Upload Photos

1,956,001 photos uploaded!

WunderBlog® & News

Nearby

Air Quality

  Air Quality AQ Index Pollutant
Not available.

Snow Depth

Station Depth Elevation

Earthquake Activity

City Distance Mag. Time & Date
Minimum magnitude displayed is 2.5.

Coastal Water Temperatures

Place Temperature

Stations

Nearby Weather Stations

Station Location Temp. Windchill Dew Point Humidity Wind Precip. Elev Updated Type
                   

Watches & Warnings

Wind Advisory
Issued: 9:39 AM CST Dec. 6, 2016 – National Weather Service

... Wind Advisory remains in effect until 9 PM CST this evening...

* timing... through 9 PM this evening.

* Winds... west 25 to 35 mph with gusts to 45 mph.

* Impacts... drivers of light weight or high profile vehicles may
experience control problems. Loose objects like garbage cans
and lawn furniture are likely to blow around. Weakened or
broken branches on trees may come down.

Precautionary/preparedness actions...

A Wind Advisory means that winds of 35 mph are expected. Winds
this strong can make driving difficult... especially for high
profile vehicles. Use extra caution.